Time;durP1;ratioP1;P1;durP2;ratioP2;P2;SDS_P1;SDS_P2;PMS_P1;PMS_P2;Temp;Humidity;BMP_temperature;BMP_pressure;BME280_temperature;BME280_humidity;BME280_pressure;Samples;Min_cycle;Max_cycle;Signal;HPM_P1;HPM_P2
2024/01/14 00:02:17;;;;;;;22.90;9.37;;;;;;;;;;4914530;29;20192;-53
2024/01/14 00:04:44;;;;;;;26.03;9.87;;;;;;;;;;4913647;29;20191;-51
2024/01/14 00:07:10;;;;;;;22.73;9.47;;;;;;;;;;4905975;29;20611;-55
2024/01/14 00:09:39;;;;;;;21.47;8.50;;;;;;;;;;4906375;29;20255;-53
2024/01/14 00:12:05;;;;;;;20.40;8.40;;;;;;;;;;4904214;29;20271;-50
2024/01/14 00:14:31;;;;;;;21.87;9.60;;;;;;;;;;4900897;29;20201;-50
2024/01/14 00:16:57;;;;;;;20.50;8.30;;;;;;;;;;4905746;29;20204;-53
2024/01/14 00:19:23;;;;;;;18.20;8.17;;;;;;;;;;4909148;29;20306;-49
2024/01/14 00:21:49;;;;;;;21.43;8.50;;;;;;;;;;4910973;29;20648;-50
2024/01/14 00:24:15;;;;;;;17.43;7.33;;;;;;;;;;4906018;29;20183;-52
2024/01/14 00:26:41;;;;;;;19.40;7.90;;;;;;;;;;4906176;29;20216;-51
2024/01/14 00:29:08;;;;;;;16.43;7.57;;;;;;;;;;4894894;29;20252;-48
2024/01/14 00:31:34;;;;;;;20.70;7.03;;;;;;;;;;4901169;29;20195;-52
2024/01/14 00:34:00;;;;;;;18.20;7.90;;;;;;;;;;4905994;29;20679;-49
2024/01/14 00:36:25;;;;;;;18.30;7.57;;;;;;;;;;4900227;29;20248;-51
2024/01/14 00:38:51;;;;;;;20.03;7.97;;;;;;;;;;4894619;29;20228;-49
2024/01/14 00:41:17;;;;;;;17.73;7.60;;;;;;;;;;4906476;29;20703;-51
2024/01/14 00:43:43;;;;;;;20.47;7.20;;;;;;;;;;4912309;29;20192;-51
2024/01/14 00:46:09;;;;;;;18.00;6.93;;;;;;;;;;4911678;29;20208;-49
2024/01/14 00:48:36;;;;;;;14.87;6.93;;;;;;;;;;4905895;29;20671;-49
2024/01/14 00:51:02;;;;;;;17.47;7.00;;;;;;;;;;4911512;29;20205;-50
2024/01/14 00:53:28;;;;;;;17.20;7.40;;;;;;;;;;4907850;29;20286;-53
2024/01/14 00:55:54;;;;;;;15.03;6.53;;;;;;;;;;4911696;29;20298;-51
2024/01/14 00:58:19;;;;;;;18.60;8.10;;;;;;;;;;4906627;29;20703;-49
2024/01/14 01:00:45;;;;;;;15.47;7.13;;;;;;;;;;4905853;29;20188;-51
2024/01/14 01:03:11;;;;;;;19.50;7.60;;;;;;;;;;4897763;29;20226;-50
2024/01/14 01:05:37;;;;;;;15.53;7.00;;;;;;;;;;4917556;29;20573;-51
2024/01/14 01:08:04;;;;;;;15.33;7.13;;;;;;;;;;4917416;29;20187;-49
2024/01/14 01:10:29;;;;;;;17.70;7.20;;;;;;;;;;4900891;29;20731;-52
2024/01/14 01:12:56;;;;;;;17.23;6.70;;;;;;;;;;4909548;29;20271;-51
2024/01/14 01:15:22;;;;;;;13.70;6.77;;;;;;;;;;4911499;29;20211;-52
2024/01/14 01:17:48;;;;;;;17.30;7.57;;;;;;;;;;4911640;29;20204;-49
2024/01/14 01:20:14;;;;;;;12.30;5.50;;;;;;;;;;4911746;29;20221;-51
2024/01/14 01:22:40;;;;;;;16.00;6.67;;;;;;;;;;4919624;29;20196;-52
2024/01/14 01:25:06;;;;;;;14.60;6.10;;;;;;;;;;4916346;29;20221;-51
2024/01/14 01:27:32;;;;;;;14.60;5.80;;;;;;;;;;4906377;29;20203;-50
2024/01/14 01:29:58;;;;;;;15.17;6.20;;;;;;;;;;4911559;29;20196;-49
2024/01/14 01:32:24;;;;;;;12.27;5.57;;;;;;;;;;4919541;29;20195;-49
2024/01/14 01:34:50;;;;;;;13.97;5.87;;;;;;;;;;4911038;29;20260;-49
2024/01/14 01:37:16;;;;;;;12.67;5.23;;;;;;;;;;4911528;29;20216;-50
2024/01/14 01:39:42;;;;;;;14.67;5.83;;;;;;;;;;4910762;29;20215;-51
2024/01/14 01:42:10;;;;;;;12.80;5.67;;;;;;;;;;4918904;29;20215;-50
2024/01/14 01:44:35;;;;;;;12.43;5.83;;;;;;;;;;4910982;29;20703;-52
2024/01/14 01:47:02;;;;;;;14.07;5.90;;;;;;;;;;4909541;29;20208;-50
2024/01/14 01:49:29;;;;;;;12.50;5.03;;;;;;;;;;4908284;29;20196;-49
2024/01/14 01:51:56;;;;;;;12.57;5.93;;;;;;;;;;4909170;29;20211;-50
2024/01/14 01:54:23;;;;;;;12.00;5.30;;;;;;;;;;4906934;29;20199;-52
2024/01/14 01:56:51;;;;;;;11.07;5.13;;;;;;;;;;4907946;29;20218;-50
2024/01/14 01:59:17;;;;;;;11.43;5.03;;;;;;;;;;4919174;29;20285;-53
2024/01/14 02:01:44;;;;;;;12.37;5.57;;;;;;;;;;4919462;29;20647;-49
2024/01/14 02:04:10;;;;;;;14.00;5.90;;;;;;;;;;4919045;29;20553;-55
2024/01/14 02:06:38;;;;;;;13.63;5.73;;;;;;;;;;4912139;29;20284;-54
2024/01/14 02:09:07;;;;;;;15.23;6.20;;;;;;;;;;4917896;29;20188;-53
2024/01/14 02:11:33;;;;;;;15.30;6.00;;;;;;;;;;4911414;29;20278;-53
2024/01/14 02:13:59;;;;;;;15.97;7.33;;;;;;;;;;4911380;29;20589;-51
2024/01/14 02:16:25;;;;;;;17.17;7.57;;;;;;;;;;4915861;29;20207;-50
2024/01/14 02:18:51;;;;;;;17.83;7.57;;;;;;;;;;4907863;29;20218;-51
2024/01/14 02:21:19;;;;;;;20.63;8.27;;;;;;;;;;4905059;29;20192;-52
2024/01/14 02:23:46;;;;;;;21.47;8.73;;;;;;;;;;4904750;29;20282;-52
2024/01/14 02:26:12;;;;;;;18.93;7.97;;;;;;;;;;4912007;29;20208;-52
2024/01/14 02:28:38;;;;;;;23.13;8.97;;;;;;;;;;4905052;29;20300;-53
2024/01/14 02:31:04;;;;;;;24.90;9.63;;;;;;;;;;4915124;29;20664;-49
2024/01/14 02:33:30;;;;;;;23.33;8.93;;;;;;;;;;4910400;29;20196;-50
2024/01/14 02:35:56;;;;;;;22.87;9.63;;;;;;;;;;4905613;29;20213;-49
2024/01/14 02:38:22;;;;;;;21.07;8.83;;;;;;;;;;4911431;29;20550;-50
2024/01/14 02:40:48;;;;;;;22.80;8.67;;;;;;;;;;4912351;29;20192;-53
2024/01/14 02:43:14;;;;;;;21.87;8.13;;;;;;;;;;4908164;29;20186;-53
2024/01/14 02:45:40;;;;;;;20.60;8.27;;;;;;;;;;4907572;29;20733;-49
2024/01/14 02:48:06;;;;;;;22.83;8.73;;;;;;;;;;4915911;29;20199;-53
2024/01/14 02:50:32;;;;;;;21.80;8.70;;;;;;;;;;4909878;29;20649;-52
2024/01/14 02:52:58;;;;;;;22.93;9.40;;;;;;;;;;4904372;29;20215;-52
2024/01/14 02:55:24;;;;;;;22.43;9.20;;;;;;;;;;4908432;29;20576;-49
2024/01/14 02:57:50;;;;;;;24.57;9.63;;;;;;;;;;4915143;29;20286;-51
2024/01/14 03:00:16;;;;;;;24.87;9.43;;;;;;;;;;4904340;29;20759;-50
2024/01/14 03:02:42;;;;;;;25.73;9.13;;;;;;;;;;4896475;29;20188;-52
2024/01/14 03:05:08;;;;;;;24.83;8.97;;;;;;;;;;4906145;29;20274;-52
2024/01/14 03:07:34;;;;;;;23.33;9.47;;;;;;;;;;4914904;29;20236;-51
2024/01/14 03:10:00;;;;;;;21.67;8.67;;;;;;;;;;4905654;29;20205;-52
2024/01/14 03:12:26;;;;;;;21.73;8.27;;;;;;;;;;4896693;29;20312;-54
2024/01/14 03:14:52;;;;;;;22.87;9.17;;;;;;;;;;4903900;29;20199;-49
2024/01/14 03:17:18;;;;;;;21.93;9.00;;;;;;;;;;4907290;29;20580;-50
2024/01/14 03:19:44;;;;;;;26.73;9.00;;;;;;;;;;4907925;29;20639;-50
2024/01/14 03:22:10;;;;;;;22.37;9.17;;;;;;;;;;4911875;29;20611;-50
2024/01/14 03:24:36;;;;;;;24.77;9.00;;;;;;;;;;4909548;29;20219;-51
2024/01/14 03:27:02;;;;;;;23.80;9.50;;;;;;;;;;4914799;29;20683;-49
2024/01/14 03:29:28;;;;;;;24.30;10.00;;;;;;;;;;4914859;29;20618;-48
2024/01/14 03:31:54;;;;;;;24.67;9.47;;;;;;;;;;4914119;29;20200;-49
2024/01/14 03:34:20;;;;;;;27.30;8.77;;;;;;;;;;4907868;29;20192;-49
2024/01/14 03:36:46;;;;;;;24.87;9.70;;;;;;;;;;4914455;29;20227;-49
2024/01/14 03:39:12;;;;;;;21.33;8.60;;;;;;;;;;4903813;29;20233;-48
2024/01/14 03:41:38;;;;;;;23.13;9.27;;;;;;;;;;4902389;29;20192;-50
2024/01/14 03:44:04;;;;;;;22.77;9.00;;;;;;;;;;4896925;29;20795;-49
2024/01/14 03:46:30;;;;;;;24.60;9.53;;;;;;;;;;4908231;29;20216;-50
2024/01/14 03:48:56;;;;;;;23.17;9.33;;;;;;;;;;4906550;29;20219;-51
2024/01/14 03:51:22;;;;;;;21.77;8.50;;;;;;;;;;4910416;29;20630;-49
2024/01/14 03:53:48;;;;;;;25.20;9.77;;;;;;;;;;4911185;29;20187;-50
2024/01/14 03:56:14;;;;;;;24.13;9.57;;;;;;;;;;4894798;29;20222;-49
2024/01/14 03:58:40;;;;;;;25.70;10.53;;;;;;;;;;4902006;29;20220;-51
2024/01/14 04:01:06;;;;;;;25.53;10.27;;;;;;;;;;4912012;29;20199;-52
2024/01/14 04:03:32;;;;;;;24.37;10.17;;;;;;;;;;4903171;29;20199;-51
2024/01/14 04:05:58;;;;;;;23.97;9.73;;;;;;;;;;4903600;29;20283;-48
2024/01/14 04:08:24;;;;;;;23.80;9.53;;;;;;;;;;4914364;29;20214;-53
2024/01/14 04:10:50;;;;;;;24.43;9.37;;;;;;;;;;4913783;29;20550;-52
2024/01/14 04:13:16;;;;;;;21.00;8.80;;;;;;;;;;4898780;29;20188;-49
2024/01/14 04:15:42;;;;;;;23.43;9.83;;;;;;;;;;4913481;29;20676;-49
2024/01/14 04:18:08;;;;;;;20.73;8.70;;;;;;;;;;4911457;29;20268;-48
2024/01/14 04:20:34;;;;;;;21.33;8.53;;;;;;;;;;4903137;29;20593;-51
2024/01/14 04:23:00;;;;;;;21.77;8.83;;;;;;;;;;4912208;29;20277;-49
2024/01/14 04:25:26;;;;;;;21.17;8.37;;;;;;;;;;4905531;29;20675;-50
2024/01/14 04:27:52;;;;;;;20.37;8.10;;;;;;;;;;4905886;29;20303;-49
2024/01/14 04:30:18;;;;;;;20.40;8.47;;;;;;;;;;4913916;29;20184;-49
2024/01/14 04:32:44;;;;;;;21.33;8.67;;;;;;;;;;4906024;29;20196;-49
2024/01/14 04:35:10;;;;;;;21.77;8.50;;;;;;;;;;4912975;29;20234;-49
2024/01/14 04:37:36;;;;;;;19.63;8.50;;;;;;;;;;4913577;29;20215;-52
2024/01/14 04:40:01;;;;;;;21.77;8.40;;;;;;;;;;4912780;29;20226;-49
2024/01/14 04:42:28;;;;;;;23.67;9.00;;;;;;;;;;4905053;29;20192;-49
2024/01/14 04:44:54;;;;;;;21.13;8.63;;;;;;;;;;4905201;29;20606;-52
2024/01/14 04:47:20;;;;;;;18.17;7.87;;;;;;;;;;4905816;29;20697;-50
2024/01/14 04:49:46;;;;;;;20.10;8.73;;;;;;;;;;4898518;29;20212;-50
2024/01/14 04:52:12;;;;;;;19.10;7.60;;;;;;;;;;4897690;29;20191;-48
2024/01/14 04:54:38;;;;;;;19.23;7.40;;;;;;;;;;4905133;29;20235;-52
2024/01/14 04:57:04;;;;;;;18.53;8.27;;;;;;;;;;4905968;29;20307;-51
2024/01/14 04:59:30;;;;;;;21.43;8.30;;;;;;;;;;4909298;29;20228;-49
2024/01/14 05:01:56;;;;;;;18.20;7.57;;;;;;;;;;4902286;29;20191;-49
2024/01/14 05:04:22;;;;;;;16.43;6.93;;;;;;;;;;4899001;29;20187;-49
2024/01/14 05:06:48;;;;;;;17.67;7.57;;;;;;;;;;4912686;29;20227;-50
2024/01/14 05:09:14;;;;;;;18.00;7.67;;;;;;;;;;4905483;29;20228;-49
2024/01/14 05:11:40;;;;;;;17.67;8.10;;;;;;;;;;4899092;29;20593;-50
2024/01/14 05:14:06;;;;;;;17.17;7.03;;;;;;;;;;4912212;29;20199;-49
2024/01/14 05:16:32;;;;;;;17.27;7.70;;;;;;;;;;4907430;29;20219;-49
2024/01/14 05:18:58;;;;;;;16.63;7.43;;;;;;;;;;4903053;29;20219;-49
2024/01/14 05:21:24;;;;;;;18.07;7.23;;;;;;;;;;4913574;29;20220;-52
2024/01/14 05:23:50;;;;;;;16.77;6.63;;;;;;;;;;4913389;29;20191;-52
2024/01/14 05:26:16;;;;;;;19.10;8.53;;;;;;;;;;4896934;29;20208;-49
2024/01/14 05:28:42;;;;;;;20.90;7.33;;;;;;;;;;4906583;29;20233;-49
2024/01/14 05:31:08;;;;;;;15.67;6.60;;;;;;;;;;4902028;29;20193;-50
2024/01/14 05:33:34;;;;;;;16.27;6.40;;;;;;;;;;4900280;29;20231;-51
2024/01/14 05:36:01;;;;;;;14.80;6.47;;;;;;;;;;4903294;29;20239;-51
2024/01/14 05:38:27;;;;;;;11.90;5.60;;;;;;;;;;4906806;29;20192;-49
2024/01/14 05:40:53;;;;;;;16.37;6.10;;;;;;;;;;4912510;29;20659;-48
2024/01/14 05:43:19;;;;;;;13.97;5.67;;;;;;;;;;4912601;29;20196;-51
2024/01/14 05:45:45;;;;;;;10.97;5.07;;;;;;;;;;4912364;29;20187;-50
2024/01/14 05:48:12;;;;;;;12.37;5.10;;;;;;;;;;4913073;29;20618;-49
2024/01/14 05:50:37;;;;;;;10.80;4.90;;;;;;;;;;4914069;29;20211;-50
2024/01/14 05:53:04;;;;;;;11.70;4.70;;;;;;;;;;4906960;29;20688;-51
2024/01/14 05:55:29;;;;;;;9.63;4.40;;;;;;;;;;4897021;29;20196;-49
2024/01/14 05:57:55;;;;;;;11.63;5.00;;;;;;;;;;4906097;29;20198;-51
2024/01/14 06:00:23;;;;;;;9.80;4.83;;;;;;;;;;4908592;29;20725;-50
2024/01/14 06:02:49;;;;;;;14.70;5.63;;;;;;;;;;4908422;29;20193;-55
2024/01/14 06:05:15;;;;;;;11.33;5.23;;;;;;;;;;4900013;29;20723;-50
2024/01/14 06:07:41;;;;;;;13.10;5.13;;;;;;;;;;4916204;29;20223;-48
2024/01/14 06:10:08;;;;;;;14.13;6.30;;;;;;;;;;4913940;29;20223;-48
2024/01/14 06:12:34;;;;;;;14.93;5.97;;;;;;;;;;4911023;29;20690;-52
2024/01/14 06:15:00;;;;;;;13.83;6.07;;;;;;;;;;4906403;29;20192;-52
2024/01/14 06:17:26;;;;;;;13.07;5.67;;;;;;;;;;4904957;29;20666;-51
2024/01/14 06:19:52;;;;;;;15.80;7.00;;;;;;;;;;4905168;29;20219;-53
2024/01/14 06:22:19;;;;;;;17.27;6.30;;;;;;;;;;4916171;29;20187;-48
2024/01/14 06:24:45;;;;;;;18.33;7.20;;;;;;;;;;4908446;29;20224;-53
2024/01/14 06:27:11;;;;;;;14.70;6.63;;;;;;;;;;4914955;29;20661;-52
2024/01/14 06:29:37;;;;;;;19.57;6.93;;;;;;;;;;4915857;29;20694;-50
2024/01/14 06:32:03;;;;;;;16.60;6.97;;;;;;;;;;4916056;29;20227;-51
2024/01/14 06:34:29;;;;;;;18.83;7.50;;;;;;;;;;4910925;29;20221;-53
2024/01/14 06:36:55;;;;;;;17.37;7.17;;;;;;;;;;4911920;29;20219;-53
2024/01/14 06:39:21;;;;;;;21.40;9.13;;;;;;;;;;4904679;29;20220;-55
2024/01/14 06:41:46;;;;;;;18.43;7.77;;;;;;;;;;4911945;29;20198;-49
2024/01/14 06:44:12;;;;;;;15.97;7.37;;;;;;;;;;4915644;29;20818;-55
2024/01/14 06:46:43;;;;;;;17.07;7.13;;;;;;;;;;4908928;29;20700;-49
2024/01/14 06:49:09;;;;;;;19.03;7.43;;;;;;;;;;4906947;29;20588;-49
2024/01/14 06:51:42;;;;;;;18.93;7.33;;;;;;;;;;4902003;29;20708;-52
2024/01/14 06:54:08;;;;;;;19.40;7.33;;;;;;;;;;4906650;29;20184;-51
2024/01/14 06:56:34;;;;;;;18.70;8.43;;;;;;;;;;4909214;29;20741;-51
2024/01/14 06:59:00;;;;;;;16.57;7.60;;;;;;;;;;4912166;29;20220;-54
2024/01/14 07:01:26;;;;;;;18.03;7.70;;;;;;;;;;4909092;29;20278;-50
2024/01/14 07:03:52;;;;;;;15.73;7.27;;;;;;;;;;4906715;29;20621;-51
2024/01/14 07:06:18;;;;;;;22.70;7.97;;;;;;;;;;4903385;29;20223;-53
2024/01/14 07:08:44;;;;;;;20.30;8.17;;;;;;;;;;4911068;29;20206;-54
2024/01/14 07:11:10;;;;;;;18.53;7.23;;;;;;;;;;4899388;29;20196;-51
2024/01/14 07:13:36;;;;;;;18.03;6.83;;;;;;;;;;4907346;29;20198;-53
2024/01/14 07:16:01;;;;;;;18.17;7.90;;;;;;;;;;4898774;29;20215;-51
2024/01/14 07:18:28;;;;;;;20.87;8.33;;;;;;;;;;4910433;29;20334;-53
2024/01/14 07:20:54;;;;;;;21.17;8.10;;;;;;;;;;4911877;29;20679;-51
2024/01/14 07:23:20;;;;;;;18.63;7.83;;;;;;;;;;4915347;29;20188;-54
2024/01/14 07:25:46;;;;;;;21.57;7.90;;;;;;;;;;4907068;29;20228;-55
2024/01/14 07:28:12;;;;;;;21.13;8.83;;;;;;;;;;4896021;29;20197;-55
2024/01/14 07:30:37;;;;;;;18.47;7.87;;;;;;;;;;4902273;29;20586;-49
2024/01/14 07:33:04;;;;;;;19.03;8.37;;;;;;;;;;4907304;29;20223;-50
2024/01/14 07:35:30;;;;;;;18.20;8.30;;;;;;;;;;4909224;29;20192;-56
2024/01/14 07:37:55;;;;;;;19.43;8.57;;;;;;;;;;4904151;29;20202;-53
2024/01/14 07:40:22;;;;;;;19.03;7.33;;;;;;;;;;4906712;29;20247;-53
2024/01/14 07:42:48;;;;;;;21.97;8.37;;;;;;;;;;4907245;29;20270;-49
2024/01/14 07:45:13;;;;;;;21.10;9.10;;;;;;;;;;4895513;29;20767;-50
2024/01/14 07:47:39;;;;;;;16.43;7.43;;;;;;;;;;4895562;29;20569;-50
2024/01/14 07:50:06;;;;;;;22.10;8.33;;;;;;;;;;4905184;29;20196;-52
2024/01/14 07:52:32;;;;;;;24.60;8.10;;;;;;;;;;4906666;29;20705;-51
2024/01/14 07:54:58;;;;;;;21.43;8.23;;;;;;;;;;4912729;29;20756;-48
2024/01/14 07:57:24;;;;;;;17.80;7.83;;;;;;;;;;4907128;29;20215;-54
2024/01/14 07:59:50;;;;;;;23.60;9.97;;;;;;;;;;4909230;29;21041;-52
2024/01/14 08:02:16;;;;;;;30.13;12.07;;;;;;;;;;4914217;29;20194;-53
2024/01/14 08:04:44;;;;;;;19.67;9.23;;;;;;;;;;4912213;29;20183;-50
2024/01/14 08:07:10;;;;;;;20.13;8.73;;;;;;;;;;4911567;29;20235;-53
2024/01/14 08:09:36;;;;;;;20.77;9.00;;;;;;;;;;4912310;29;20259;-50
2024/01/14 08:12:03;;;;;;;21.23;9.30;;;;;;;;;;4913422;29;20192;-52
2024/01/14 08:14:29;;;;;;;18.93;8.27;;;;;;;;;;4904588;29;20199;-53
2024/01/14 08:16:55;;;;;;;16.53;7.70;;;;;;;;;;4905037;29;20646;-51
2024/01/14 08:19:21;;;;;;;16.57;7.03;;;;;;;;;;4905819;29;20245;-53
2024/01/14 08:21:47;;;;;;;19.50;7.37;;;;;;;;;;4905323;29;20629;-53
2024/01/14 08:24:12;;;;;;;15.27;7.10;;;;;;;;;;4897076;29;20195;-56
2024/01/14 08:26:45;;;;;;;18.47;8.00;;;;;;;;;;4912175;29;20216;-50
2024/01/14 08:29:13;;;;;;;18.63;7.63;;;;;;;;;;4904589;29;20731;-53
2024/01/14 08:31:40;;;;;;;17.33;8.10;;;;;;;;;;4913113;29;20191;-53
2024/01/14 08:34:06;;;;;;;17.23;7.87;;;;;;;;;;4911494;29;20321;-50
2024/01/14 08:36:32;;;;;;;18.47;7.30;;;;;;;;;;4893445;29;20586;-50
2024/01/14 08:38:58;;;;;;;15.93;7.43;;;;;;;;;;4909135;29;20211;-50
2024/01/14 08:41:26;;;;;;;15.27;7.00;;;;;;;;;;4897993;29;20315;-50
2024/01/14 08:43:52;;;;;;;16.27;6.33;;;;;;;;;;4913055;29;20192;-49
2024/01/14 08:46:18;;;;;;;18.30;7.20;;;;;;;;;;4901128;29;20203;-51
2024/01/14 08:48:44;;;;;;;19.27;7.47;;;;;;;;;;4908004;29;20194;-50
2024/01/14 08:51:12;;;;;;;18.17;7.50;;;;;;;;;;4902037;29;20244;-51
2024/01/14 08:53:38;;;;;;;17.13;7.97;;;;;;;;;;4893672;29;20197;-49
2024/01/14 08:56:04;;;;;;;27.00;10.40;;;;;;;;;;4900738;29;20227;-49
2024/01/14 08:58:30;;;;;;;26.33;10.73;;;;;;;;;;4906089;29;20270;-49
2024/01/14 09:00:56;;;;;;;23.23;9.60;;;;;;;;;;4911620;29;20282;-51
2024/01/14 09:03:22;;;;;;;24.37;9.87;;;;;;;;;;4905490;29;20196;-49
2024/01/14 09:05:48;;;;;;;22.93;9.23;;;;;;;;;;4911439;29;20219;-48
2024/01/14 09:08:14;;;;;;;18.70;9.30;;;;;;;;;;4893760;29;21027;-50
2024/01/14 09:10:40;;;;;;;23.10;10.63;;;;;;;;;;4907276;29;20179;-50
2024/01/14 09:13:06;;;;;;;20.00;9.33;;;;;;;;;;4904109;29;20207;-52
2024/01/14 09:15:32;;;;;;;18.50;8.10;;;;;;;;;;4898664;29;20580;-49
2024/01/14 09:17:58;;;;;;;22.33;8.87;;;;;;;;;;4901262;29;20196;-49
2024/01/14 09:20:25;;;;;;;23.90;9.37;;;;;;;;;;4905241;29;20230;-48
2024/01/14 09:22:51;;;;;;;21.33;8.10;;;;;;;;;;4912503;29;20314;-52
2024/01/14 09:25:16;;;;;;;18.70;8.10;;;;;;;;;;4911719;29;20322;-48
2024/01/14 09:27:42;;;;;;;22.83;9.97;;;;;;;;;;4916139;29;20739;-51
2024/01/14 09:30:09;;;;;;;26.53;9.93;;;;;;;;;;4908064;29;20586;-49
2024/01/14 09:32:37;;;;;;;21.43;8.90;;;;;;;;;;4916178;29;20770;-51
2024/01/14 09:35:03;;;;;;;23.03;9.30;;;;;;;;;;4907300;29;20271;-51
2024/01/14 09:37:29;;;;;;;25.63;9.20;;;;;;;;;;4915938;29;20299;-50
2024/01/14 09:39:55;;;;;;;25.67;8.63;;;;;;;;;;4907802;29;20303;-49
2024/01/14 09:42:27;;;;;;;20.10;8.90;;;;;;;;;;4915528;29;20188;-49
2024/01/14 09:44:57;;;;;;;22.40;9.60;;;;;;;;;;4914908;29;20184;-51
2024/01/14 09:47:23;;;;;;;22.97;8.20;;;;;;;;;;4911213;29;20528;-49
2024/01/14 09:49:49;;;;;;;25.07;9.17;;;;;;;;;;4912020;29;20248;-51
2024/01/14 09:52:16;;;;;;;21.17;8.97;;;;;;;;;;4905008;29;20192;-51
2024/01/14 09:54:42;;;;;;;19.63;8.17;;;;;;;;;;4896393;29;20220;-50
2024/01/14 09:57:12;;;;;;;22.40;8.80;;;;;;;;;;4898556;29;20239;-49
2024/01/14 09:59:40;;;;;;;21.40;8.40;;;;;;;;;;4909713;29;20212;-51
2024/01/14 10:02:06;;;;;;;21.67;7.87;;;;;;;;;;4896820;29;20280;-48
2024/01/14 10:04:32;;;;;;;20.23;8.33;;;;;;;;;;4909078;29;20184;-53
2024/01/14 10:06:58;;;;;;;20.70;7.93;;;;;;;;;;4914400;29;20323;-59
2024/01/14 10:09:25;;;;;;;21.00;7.93;;;;;;;;;;4911788;29;20193;-52
2024/01/14 10:11:51;;;;;;;20.43;8.77;;;;;;;;;;4904235;29;20197;-53
2024/01/14 10:14:18;;;;;;;26.23;8.90;;;;;;;;;;4899429;29;20577;-49
2024/01/14 10:16:44;;;;;;;15.80;7.23;;;;;;;;;;4900925;29;20214;-48
2024/01/14 10:19:10;;;;;;;18.13;7.00;;;;;;;;;;4904231;29;20224;-49
2024/01/14 10:21:36;;;;;;;20.87;7.67;;;;;;;;;;4896823;29;20216;-52
2024/01/14 10:24:02;;;;;;;20.37;8.23;;;;;;;;;;4903860;29;20575;-49
2024/01/14 10:26:29;;;;;;;22.37;7.77;;;;;;;;;;4914766;29;20314;-51
2024/01/14 10:29:00;;;;;;;19.00;7.30;;;;;;;;;;4915084;29;20282;-53
2024/01/14 10:31:26;;;;;;;18.03;6.57;;;;;;;;;;4907530;29;20239;-51
2024/01/14 10:33:52;;;;;;;13.60;6.00;;;;;;;;;;4915056;29;20188;-52
2024/01/14 10:36:18;;;;;;;16.40;6.43;;;;;;;;;;4895745;29;20220;-48
2024/01/14 10:38:44;;;;;;;14.87;6.27;;;;;;;;;;4895320;29;20192;-50
2024/01/14 10:41:10;;;;;;;14.10;6.43;;;;;;;;;;4911706;29;20194;-49
2024/01/14 10:43:36;;;;;;;14.40;5.40;;;;;;;;;;4914985;29;20183;-49
2024/01/14 10:46:03;;;;;;;12.60;5.77;;;;;;;;;;4907720;29;20204;-49
2024/01/14 10:48:29;;;;;;;15.83;6.00;;;;;;;;;;4896241;29;20200;-50
2024/01/14 10:50:55;;;;;;;14.57;7.03;;;;;;;;;;4911234;29;20184;-51
2024/01/14 10:53:26;;;;;;;14.77;6.20;;;;;;;;;;4915054;29;20202;-49
2024/01/14 10:56:02;;;;;;;13.60;5.73;;;;;;;;;;4922236;29;20200;-50
2024/01/14 10:58:30;;;;;;;18.27;7.17;;;;;;;;;;4922798;29;20648;-49
2024/01/14 11:01:00;;;;;;;15.57;6.37;;;;;;;;;;4922608;29;20210;-54
2024/01/14 11:03:27;;;;;;;16.63;6.83;;;;;;;;;;4910374;29;20259;-49
2024/01/14 11:05:54;;;;;;;16.60;6.87;;;;;;;;;;4903481;29;20650;-49
2024/01/14 11:08:21;;;;;;;16.17;6.70;;;;;;;;;;4903414;29;20180;-50
2024/01/14 11:10:47;;;;;;;16.60;6.03;;;;;;;;;;4910697;29;20200;-50
2024/01/14 11:13:28;;;;;;;14.27;6.57;;;;;;;;;;4906618;29;20192;-53
2024/01/14 11:15:54;;;;;;;15.47;6.57;;;;;;;;;;4906399;29;20216;-57
2024/01/14 11:18:23;;;;;;;13.63;6.07;;;;;;;;;;4895692;29;20184;-49
2024/01/14 11:20:53;;;;;;;13.43;6.23;;;;;;;;;;4903327;29;20287;-51
2024/01/14 11:23:22;;;;;;;14.70;6.23;;;;;;;;;;4914154;29;20187;-51
2024/01/14 11:25:49;;;;;;;14.00;6.27;;;;;;;;;;4907075;29;20315;-51
2024/01/14 11:28:15;;;;;;;15.03;5.93;;;;;;;;;;4895320;29;20284;-51
2024/01/14 11:30:47;;;;;;;13.53;5.77;;;;;;;;;;4909042;29;20199;-48
2024/01/14 11:33:29;;;;;;;13.33;6.07;;;;;;;;;;4898675;29;20527;-48
2024/01/14 11:35:55;;;;;;;12.77;5.50;;;;;;;;;;4898060;29;20332;-53
2024/01/14 11:38:33;;;;;;;12.40;6.07;;;;;;;;;;4914215;29;20588;-50
2024/01/14 11:41:00;;;;;;;13.50;6.23;;;;;;;;;;4905864;29;20653;-49
2024/01/14 11:43:28;;;;;;;15.00;6.40;;;;;;;;;;4909826;29;20203;-52
2024/01/14 11:45:54;;;;;;;14.77;6.47;;;;;;;;;;4902508;29;20212;-53
2024/01/14 11:48:20;;;;;;;13.47;6.07;;;;;;;;;;4905836;29;20256;-51
2024/01/14 11:50:50;;;;;;;17.43;7.03;;;;;;;;;;4899411;29;20188;-50
2024/01/14 11:53:16;;;;;;;12.87;5.63;;;;;;;;;;4894780;29;20211;-49
2024/01/14 11:55:42;;;;;;;13.37;5.97;;;;;;;;;;4907907;29;20599;-52
2024/01/14 11:58:10;;;;;;;16.00;6.27;;;;;;;;;;4898132;29;20199;-52
2024/01/14 12:00:37;;;;;;;14.47;6.47;;;;;;;;;;4900618;29;20231;-51
2024/01/14 12:03:06;;;;;;;15.73;6.17;;;;;;;;;;4911275;29;20210;-52
2024/01/14 12:05:33;;;;;;;14.60;5.90;;;;;;;;;;4905307;29;20671;-54
2024/01/14 12:08:00;;;;;;;15.83;6.17;;;;;;;;;;4920964;29;20655;-51
2024/01/14 12:10:28;;;;;;;14.80;6.90;;;;;;;;;;4906478;29;20211;-55
2024/01/14 12:12:54;;;;;;;15.60;6.73;;;;;;;;;;4905613;29;20204;-49
2024/01/14 12:15:20;;;;;;;16.03;6.57;;;;;;;;;;4921002;29;20535;-50
2024/01/14 12:17:55;;;;;;;14.70;6.33;;;;;;;;;;4906853;29;20212;-52
2024/01/14 12:20:21;;;;;;;15.50;5.83;;;;;;;;;;4917680;29;20212;-53
2024/01/14 12:22:47;;;;;;;16.17;6.63;;;;;;;;;;4894533;29;20228;-50
2024/01/14 12:25:13;;;;;;;17.33;6.73;;;;;;;;;;4904215;29;20359;-52
2024/01/14 12:27:41;;;;;;;15.53;6.63;;;;;;;;;;4907029;29;20216;-53
2024/01/14 12:30:08;;;;;;;16.80;6.50;;;;;;;;;;4909945;29;20191;-54
2024/01/14 12:32:37;;;;;;;15.13;6.83;;;;;;;;;;4905594;29;20228;-54
2024/01/14 12:35:04;;;;;;;15.80;6.67;;;;;;;;;;4920639;29;20195;-51
2024/01/14 12:37:29;;;;;;;17.33;6.90;;;;;;;;;;4912998;29;20215;-52
2024/01/14 12:39:55;;;;;;;14.33;5.83;;;;;;;;;;4905036;29;20592;-56
2024/01/14 12:42:23;;;;;;;17.00;6.27;;;;;;;;;;4908719;29;20183;-51
2024/01/14 12:44:49;;;;;;;16.10;6.07;;;;;;;;;;4910102;29;20216;-51
2024/01/14 12:47:18;;;;;;;16.13;6.07;;;;;;;;;;4908709;29;20308;-52
2024/01/14 12:49:44;;;;;;;14.00;5.60;;;;;;;;;;4912916;29;20656;-52
2024/01/14 12:52:10;;;;;;;11.53;5.00;;;;;;;;;;4920601;29;20187;-51
2024/01/14 12:54:36;;;;;;;11.20;5.37;;;;;;;;;;4907676;29;20292;-52
2024/01/14 12:57:03;;;;;;;11.87;5.13;;;;;;;;;;4917810;29;20202;-52
2024/01/14 12:59:29;;;;;;;9.57;4.33;;;;;;;;;;4912787;29;20218;-52
2024/01/14 13:01:56;;;;;;;8.77;4.13;;;;;;;;;;4912269;29;20223;-52
2024/01/14 13:04:21;;;;;;;8.50;3.93;;;;;;;;;;4912574;29;20203;-53
2024/01/14 13:06:47;;;;;;;9.27;3.70;;;;;;;;;;4904563;29;20269;-52
2024/01/14 13:09:16;;;;;;;7.20;3.70;;;;;;;;;;4912620;29;20208;-52
2024/01/14 13:11:42;;;;;;;8.87;4.27;;;;;;;;;;4920278;29;20278;-55
2024/01/14 13:14:08;;;;;;;7.83;4.07;;;;;;;;;;4912678;29;20202;-50
2024/01/14 13:16:37;;;;;;;9.93;4.40;;;;;;;;;;4912270;29;20223;-53
2024/01/14 13:19:03;;;;;;;10.23;4.83;;;;;;;;;;4913342;29;20219;-51
2024/01/14 13:21:29;;;;;;;11.17;4.77;;;;;;;;;;4927381;29;20258;-52
2024/01/14 13:23:56;;;;;;;10.60;5.03;;;;;;;;;;4920298;29;20238;-52
2024/01/14 13:26:24;;;;;;;12.27;4.97;;;;;;;;;;4909101;29;20200;-53
2024/01/14 13:28:51;;;;;;;11.33;5.03;;;;;;;;;;4908642;29;20243;-54
2024/01/14 13:31:17;;;;;;;12.77;6.13;;;;;;;;;;4928115;29;20263;-53
2024/01/14 13:33:42;;;;;;;12.17;5.07;;;;;;;;;;4910480;29;20656;-52
2024/01/14 13:36:09;;;;;;;14.50;5.77;;;;;;;;;;4903252;29;20290;-50
2024/01/14 13:38:35;;;;;;;13.57;6.20;;;;;;;;;;4920280;29;20192;-49
2024/01/14 13:41:01;;;;;;;11.57;5.27;;;;;;;;;;4928728;29;20238;-54
2024/01/14 13:43:27;;;;;;;12.87;5.20;;;;;;;;;;4923687;29;20274;-49
2024/01/14 13:45:53;;;;;;;12.60;5.40;;;;;;;;;;4916424;29;20208;-49
2024/01/14 13:48:19;;;;;;;11.10;5.23;;;;;;;;;;4903334;29;20191;-50
2024/01/14 13:50:45;;;;;;;11.83;5.30;;;;;;;;;;4911177;29;20199;-50
2024/01/14 13:53:11;;;;;;;11.00;5.20;;;;;;;;;;4906091;29;20203;-49
2024/01/14 13:55:37;;;;;;;13.97;6.07;;;;;;;;;;4911086;29;20203;-50
2024/01/14 13:58:03;;;;;;;14.90;6.00;;;;;;;;;;4905526;29;20283;-52
2024/01/14 14:00:29;;;;;;;13.67;6.60;;;;;;;;;;4919310;29;20223;-49
2024/01/14 14:02:55;;;;;;;12.00;5.20;;;;;;;;;;4920561;29;20506;-49
2024/01/14 14:05:21;;;;;;;14.90;6.40;;;;;;;;;;4909571;29;20184;-53
2024/01/14 14:07:47;;;;;;;14.97;5.73;;;;;;;;;;4904271;29;20648;-50
2024/01/14 14:10:13;;;;;;;12.53;5.40;;;;;;;;;;4914338;29;20222;-54
2024/01/14 14:12:39;;;;;;;11.53;5.20;;;;;;;;;;4912188;29;20214;-51
2024/01/14 14:15:05;;;;;;;11.23;5.23;;;;;;;;;;4914417;29;20275;-52
2024/01/14 14:17:31;;;;;;;12.07;5.50;;;;;;;;;;4897422;29;20227;-50
2024/01/14 14:19:57;;;;;;;13.57;5.87;;;;;;;;;;4898828;29;20216;-48
2024/01/14 14:22:23;;;;;;;10.80;4.97;;;;;;;;;;4927693;29;20190;-52
2024/01/14 14:24:58;;;;;;;11.57;5.70;;;;;;;;;;4909114;29;20240;-51
2024/01/14 14:27:24;;;;;;;11.80;5.70;;;;;;;;;;4908281;29;20303;-50